Stunt Ranch Reserve, Santa Monica Mtns, California Weather observations

Data are for 10 minute period ending at time listed.
 Day   Time   Solar   Ave.   Ave.  Ave.  Vector  Max.   Baro.   Total    
  of    of     Rad.   Air    Rel.  Wind   Wind   Wind  Press.  Precip.   
Year   Day            Temp.  Hum.  Speed  Dir.   Gust                    
2015   (PST)  Kw/m2    F      %     mph   deg.    mph    mb.     in.     
-------------------------------------------------------------------------
 141    4:10   0.00   51.0    88    0.4   172     2.0   966.8    0.00 
 141    4:20   0.00   50.9    89    1.7   226     3.1   966.8    0.00 
 141    4:30   0.00   50.8    89    2.0   212     3.7   966.8    0.00 
 141    4:40   0.00   50.6    88    0.2   260     2.2   966.8    0.00 
 141    4:50   0.00   50.0    89    0.0     0     0.0   966.8    0.00 
 141    5:00   0.01   49.7    90    0.5    68     1.5   966.8    0.00 
 141    5:10   0.01   49.6    91    1.3   197     2.2   966.8    0.00 
 141    5:20   0.02   49.7    91    0.8   292     1.5   966.8    0.00 
 141    5:30   0.03   49.9    92    0.7   310     1.9   967.2    0.00 
 141    5:40   0.03   49.9    91    1.4   231     2.1   967.2    0.00 
 141    5:50   0.05   50.2    90    1.4   211     2.2   967.5    0.00 
 141    6:00   0.07   50.6    89    0.5   246     1.5   967.5    0.00 
 141    6:10   0.14   52.5    86    0.2   349     1.1   967.5    0.00 
 141    6:20   0.09   53.6    82    0.5   313     1.6   967.5    0.00 
 141    6:30   0.09   53.3    82    0.2   138     1.1   967.5    0.00 
 141    6:40   0.12   54.0    81    0.9   286     2.0   967.5    0.00 
 141    6:50   0.13   54.0    81    1.9   270     2.9   967.8    0.00 
 141    7:00   0.15   54.2    81    0.9   289     2.0   967.8    0.00 
 141    7:10   0.14   55.1    79    0.6   330     2.1   967.8    0.00 
 141    7:20   0.14   55.2    78    0.6   312     1.8   967.8    0.00 
 141    7:30   0.15   55.6    78    0.9   321     2.9   967.8    0.00 
 141    7:40   0.21   56.1    76    1.8   311     3.7   968.2    0.00 
 141    7:50   0.27   57.2    74    1.8   330     3.5   968.2    0.00 
 141    8:00   0.20   57.6    70    1.4   319     3.8   968.2    0.00 
 141    8:10   0.17   58.4    67    1.1   310     3.6   968.2    0.00 
 141    8:20   0.28   58.4    66    2.0   315     5.2   968.2    0.00 
 141    8:30   0.39   60.7    60    2.9   292     6.4   968.2    0.00 
 141    8:40   0.24   61.3    57    2.1   318     5.6   968.2    0.00 
 141    8:50   0.34   60.3    59    2.4   141     8.3   967.8    0.00 
 141    9:00   0.31   60.8    57    1.0   170     4.1   967.8    0.00 
 141    9:10   0.49   60.9    57    3.0   294     8.4   967.8    0.00 
 141    9:20   0.86   64.7    51    2.9   308     6.8   967.8    0.00 
 141    9:30   0.88   67.2    47    3.4   282     8.4   967.5    0.00 
 141    9:40   0.92   65.4    49    2.3   291     8.3   967.5    0.00 
 141    9:50   0.36   64.3    51    2.0   351     5.6   967.5    0.00 
 141   10:00   0.34   62.9    51    3.2   147     8.5   967.5    0.00 
 141   10:10   0.92   63.1    51    4.5   229     9.9   967.5    0.00 
 141   10:20   0.32   62.7    52    4.8   184    11.5   967.8    0.00 
 141   10:30   0.30   61.9    54    4.9   152    10.0   967.8    0.00 
 141   10:40   0.26   62.1    53    3.5   168     9.3   967.8    0.00 
 141   10:50   0.31   61.6    54    5.0   154     9.6   967.8    0.00 
 141   11:00   1.03   63.1    51    5.1   149    10.0   967.8    0.00 
 141   11:10   1.01   66.4    47    6.2    97    12.9   967.8    0.00 
 141   11:20   0.56   64.5    49    7.4   105    16.8   967.8    0.00 
 141   11:30   0.44   63.9    50    6.1   156    13.4   967.8    0.00 
 141   11:40   0.42   63.5    50    6.3   152    12.2   967.8    0.00 
 141   11:50   0.43   62.7    52    7.4   156    16.1   967.8    0.00 
 141   12:00   0.44   62.5    53    6.3   149    12.2   967.8    0.00 
 141   12:10   0.48   63.1    52    4.4   167    10.4   967.8    0.00 
 141   12:20   0.73   64.5    49    4.0   193    10.8   967.8    0.00 
 141   12:30   0.85   65.6    48    2.4   145     8.0   967.8    0.00 
 141   12:40   0.90   66.1    46    4.4   147    13.4   967.8    0.00 
 141   12:50   0.82   66.4    46    4.4   142    10.4   967.5    0.00 
 141   13:00   0.90   66.2    46    4.7   167    11.1   967.5    0.00 
 141   13:10   0.58   65.5    47    4.9   185    11.4   967.5    0.00 
 141   13:20   0.50   64.2    49    5.6   154    10.6   967.5    0.00 
 141   13:30   0.89   64.4    49    6.6   157    14.4   967.5    0.00 
 141   13:40   0.67   65.0    47    6.7   159    15.6   967.5    0.00 
 141   13:50   0.65   64.7    47    6.5   163    12.2   967.5    0.00 
 141   14:00   0.57   65.1    47    3.2   111     8.5   967.5    0.00 
 141   14:10   0.77   66.3    46    2.5    52     7.6   967.5    0.00 
 141   14:20   0.73   66.5    45    3.1   189    10.6   967.2    0.00 
 141   14:30   0.62   66.3    46    2.5   114     6.6   967.2    0.00 
 141   14:40   0.64   65.9    46    2.6   116     7.5   966.8    0.00 
 141   14:50   0.27   65.2    47    4.6   172     9.9   966.8    0.00 
 141   15:00   0.42   63.3    50    6.5   153    13.9   966.8    0.00 
 141   15:10   0.67   64.7    46    6.5   169    12.4   966.8    0.00 
 141   15:20   0.53   64.3    46    6.8   168    15.4   966.8    0.00 
 141   15:30   0.65   64.5    45    7.9   163    14.1   966.5    0.00 
 141   15:40   0.63   64.1    46    6.8   158    11.9   966.5    0.00 
 141   15:50   0.59   64.7    45    5.3   164    11.3   966.5    0.00 
 141   16:00   0.53   65.4    44    3.9    68    10.2   966.5    0.00 
 141   16:10   0.54   67.4    42    3.8   355     8.8   966.1    0.00 
 141   16:20   0.50   67.9    41    2.4   332     5.6   966.1    0.00 
 141   16:30   0.33   67.6    42    2.4   239     6.8   966.1    0.00 
 141   16:40   0.40   66.3    44    4.0   187    10.9   966.5    0.00 
 141   16:50   0.37   64.8    46    5.7   163    12.8   966.5    0.00 
 141   17:00   0.27   63.6    47    5.5   176     9.5   966.5    0.00 
 141   17:10   0.28   63.4    46    5.8   185    11.0   966.5    0.00 
 141   17:20   0.30   63.3    47    5.6   164    10.9   966.5    0.00 
 141   17:30   0.24   63.2    47    4.4   177    11.3   966.8    0.00 
 141   17:40   0.16   62.3    49    3.5   177    10.4   966.8    0.00 
 141   17:50   0.14   61.5    49    2.8   188     9.3   966.8    0.00 
 141   18:00   0.06   61.3    49    2.6   206     6.4   966.8    0.00 
 141   18:10   0.04   60.8    49    3.1   200     7.6   966.8    0.00 
 141   18:20   0.03   60.2    49    2.6   198     6.4   967.2    0.00 
 141   18:30   0.03   59.8    52    2.4   305    10.3   967.2    0.00 
 141   18:40   0.02   58.5    60    2.2   314     6.4   967.5    0.00 
 141   18:50   0.01   57.6    63    2.3   268     6.3   967.5    0.00 
 141   19:00   0.01   56.6    65    1.8   312     4.8   967.5    0.00 
 141   19:10   0.00   55.7    67    1.4   299     5.3   967.8    0.00 
 141   19:20   0.00   54.9    70    1.2   302     5.8   967.8    0.00 
 141   19:30   0.00   54.4    72    0.6   287     4.3   967.8    0.00 
 141   19:40   0.00   53.7    73    0.3   273     2.9   968.2    0.00 
 141   19:50   0.00   53.1    75    0.7   236     3.1   968.2    0.00 
 141   20:00   0.00   52.9    77    0.7   230     2.7   968.2    0.00 
 141   20:10   0.00   53.0    77    1.5   234     3.8   968.2    0.00 
 141   20:20   0.00   52.9    77    1.7   217     3.4   968.2    0.00 
 141   20:30   0.00   52.8    77    1.9   228     3.7   968.2    0.00 
 141   20:40   0.00   53.1    77    1.8   224     3.2   968.2    0.00 
 141   20:50   0.00   53.4    76    1.3   237     2.3   968.5    0.00 
 141   21:00   0.00   53.7    75    1.7   261     3.4   968.5    0.00 
 141   21:10   0.00   53.9    75    0.6   214     2.2   968.5    0.00 
 141   21:20   0.00   54.0    76    1.6   227     2.7   968.8    0.00 
 141   21:30   0.00   54.2    75    0.9   231     2.3   968.8    0.00 
 141   21:40   0.00   54.2    75    1.4   186     2.3   968.5    0.00 
 141   21:50   0.00   54.0    75    1.4   197     2.4   968.5    0.00 
 141   22:00   0.00   53.6    76    0.9   220     2.0   968.5    0.00 
 141   22:10   0.00   53.3    77    2.2   220     3.6   968.8    0.00 
 141   22:20   0.00   53.2    77    3.0   223     5.8   968.8    0.00 
 141   22:30   0.00   53.3    77    2.7   260     5.5   968.8    0.00 
 141   22:40   0.00   53.1    77    0.4   287     1.8   968.8    0.00 
 141   22:50   0.00   52.8    78    0.6   226     2.0   968.8    0.00 
 141   23:00   0.00   52.8    79    0.5   241     2.1   968.8    0.00 
 141   23:10   0.00   52.6    79    0.9   208     2.0   968.8    0.00 
 141   23:20   0.00   52.3    80    0.6   230     1.5   968.5    0.00 
 141   23:30   0.00   52.0    81    0.4   193     1.2   968.5    0.00 
 141   23:40   0.00   52.1    81    1.4   206     2.6   968.5    0.00 
 141   23:50   0.00   51.9    80    1.8   194     3.4   968.5    0.00 
 142    0:00   0.00   51.7    81    2.4   172     3.4   968.5    0.00 
 142    0:10   0.00   51.9    81    1.5   165     2.5   968.2    0.00 
 142    0:20   0.00   52.1    80    1.3   163     2.3   968.2    0.00 
 142    0:30   0.00   52.1    80    1.4   160     2.2   968.2    0.00 
 142    0:40   0.00   51.8    81    1.5   160     2.3   968.2    0.00 
 142    0:50   0.00   51.7    81    1.7   152     3.0   968.2    0.00 
 142    1:00   0.00   51.6    81    1.9   161     2.9   968.2    0.00 
 142    1:10   0.00   51.5    81    2.1   184     3.1   968.2    0.00 
 142    1:20   0.00   51.4    82    2.8   172     3.9   968.2    0.00 
 142    1:30   0.00   51.5    81    2.5   149     4.3   967.8    0.00 
 142    1:40   0.00   52.0    80    0.0   268     0.8   967.8    0.00 
 142    1:50   0.00   52.4    79    0.8   266     2.0   967.8    0.00 
 142    2:00   0.00   52.4    80    0.0   185     0.1   967.8    0.00 
 142    2:10   0.00   52.4    80    0.9   281     2.9   967.8    0.00 
 142    2:20   0.00   52.1    81    1.1   246     1.8   967.8    0.00 
 142    2:30   0.00   51.8    82    0.7   115     1.7   967.8    0.00 
 142    2:40   0.00   51.8    82    0.4   167     1.2   967.8    0.00 
 142    2:50   0.00   51.9    82    0.6   305     1.8   968.2    0.00 
 142    3:00   0.00   51.7    82    0.3   264     1.5   968.2    0.00 
 142    3:10   0.00   51.7    82    0.9   255     2.3   968.2    0.00 
 142    3:20   0.00   51.7    82    1.9   240     3.3   968.2    0.00 
 142    3:30   0.00   51.7    82    1.9   217     2.9   968.2    0.00 
 142    3:40   0.00   51.7    82    2.3   249     5.0   968.2    0.00 
 142    3:50   0.00   51.9    83    1.4   265     3.5   968.2    0.00 
 142    4:00   0.00   51.7    83    1.2   260     2.6   968.2    0.00 

Return to Stunt Ranch Reserve graphs page.


Western Regional Climate Center,wrcc@dri.edu